createdAt,value
2018-07-26T00:00:50.097Z,24.64
2018-07-26T00:01:59.015Z,24.61
2018-07-26T00:03:08.160Z,24.65
2018-07-26T00:04:17.023Z,24.61
2018-07-26T00:05:26.171Z,24.55
2018-07-26T00:06:35.313Z,24.5
2018-07-26T00:07:44.182Z,24.58
2018-07-26T00:08:53.449Z,24.55
2018-07-26T00:10:02.869Z,24.55
2018-07-26T00:11:12.015Z,24.57
2018-07-26T00:12:20.882Z,24.53
2018-07-26T00:13:29.750Z,24.46
2018-07-26T00:14:38.889Z,24.45
2018-07-26T00:15:47.758Z,24.47
2018-07-26T00:16:56.898Z,24.42
2018-07-26T00:18:05.765Z,24.43
2018-07-26T00:19:14.632Z,24.47
2018-07-26T00:20:23.499Z,24.4
2018-07-26T00:21:32.728Z,24.4
2018-07-26T00:22:41.535Z,24.31
2018-07-26T00:23:50.404Z,24.28
2018-07-26T00:24:59.550Z,24.25
2018-07-26T00:26:08.418Z,24.2
2018-07-26T00:27:17.565Z,24.22
2018-07-26T00:28:26.432Z,24.13
2018-07-26T00:29:35.299Z,24.2
2018-07-26T00:30:44.166Z,24.32
2018-07-26T00:31:53.181Z,24.21
2018-07-26T00:33:02.325Z,24.2
2018-07-26T00:34:11.192Z,24.24
2018-07-26T00:35:20.058Z,24.15
2018-07-26T00:36:29.007Z,24.15
2018-07-26T00:37:38.240Z,24.2
2018-07-26T00:38:47.105Z,24.2
2018-07-26T00:39:55.973Z,24
2018-07-26T00:41:04.839Z,24
2018-07-26T00:42:13.704Z,23.97
2018-07-26T00:43:22.568Z,23.95
2018-07-26T00:44:31.435Z,23.93
2018-07-26T00:45:40.298Z,23.94
2018-07-26T00:46:49.446Z,23.91
2018-07-26T00:47:58.311Z,23.9
2018-07-26T00:49:07.174Z,23.84
2018-07-26T00:50:16.037Z,23.72
2018-07-26T00:51:25.232Z,23.85
2018-07-26T00:52:34.384Z,23.84
2018-07-26T00:53:43.250Z,23.76
2018-07-26T00:54:52.740Z,23.83
2018-07-26T00:56:01.607Z,23.79
2018-07-26T00:57:10.746Z,23.75
2018-07-26T00:58:19.608Z,23.76
2018-07-26T00:59:28.755Z,23.76
2018-07-26T01:00:37.619Z,23.72
2018-07-26T01:01:46.481Z,23.72
2018-07-26T01:02:55.344Z,23.7
2018-07-26T01:04:04.210Z,23.7
2018-07-26T01:05:13.074Z,23.61
2018-07-26T01:06:22.290Z,23.63
2018-07-26T01:07:31.438Z,23.53
2018-07-26T01:08:40.301Z,23.63
2018-07-26T01:09:49.166Z,23.53
2018-07-26T01:10:58.036Z,23.53
2018-07-26T01:12:07.182Z,23.58
2018-07-26T01:13:16.045Z,23.6
2018-07-26T01:14:24.912Z,23.6
2018-07-26T01:15:33.780Z,23.5
2018-07-26T01:16:42.643Z,23.54
2018-07-26T01:17:51.659Z,23.51
2018-07-26T01:19:00.526Z,23.58
2018-07-26T01:20:09.391Z,23.47
2018-07-26T01:21:18.531Z,23.54
2018-07-26T01:22:27.390Z,23.55
2018-07-26T01:23:36.254Z,23.55
2018-07-26T01:24:45.118Z,23.5
2018-07-26T01:25:53.985Z,23.46
2018-07-26T01:27:02.849Z,23.5
2018-07-26T01:28:11.710Z,23.5
2018-07-26T01:29:20.579Z,23.46
2018-07-26T01:30:29.717Z,23.38
2018-07-26T01:31:38.579Z,23.4
2018-07-26T01:32:47.721Z,23.35
2018-07-26T01:33:56.863Z,23.39
2018-07-26T01:35:05.831Z,23.35
2018-07-26T01:36:14.692Z,23.36
2018-07-26T01:37:23.553Z,23.35
2018-07-26T01:38:32.416Z,23.36
2018-07-26T01:39:41.559Z,23.4
2018-07-26T01:40:50.671Z,23.42
2018-07-26T01:41:59.535Z,23.33
2018-07-26T01:43:08.397Z,23.33
2018-07-26T01:44:17.260Z,23.36
2018-07-26T01:45:26.124Z,23.28
2018-07-26T01:46:34.990Z,23.39
2018-07-26T01:47:43.852Z,23.25
2018-07-26T01:48:52.715Z,23.2
2018-07-26T01:50:01.579Z,23.23
2018-07-26T01:51:10.445Z,23.22
2018-07-26T01:52:19.582Z,23.31
2018-07-26T01:53:28.446Z,23.27
2018-07-26T01:54:37.587Z,23.31
2018-07-26T01:55:46.455Z,23.27
2018-07-26T01:56:55.591Z,23.28
2018-07-26T01:58:04.454Z,23.23
2018-07-26T01:59:13.320Z,23.25
2018-07-26T02:00:22.185Z,23.19
2018-07-26T02:01:31.336Z,23.22
2018-07-26T02:02:40.547Z,23.19
2018-07-26T02:03:50.041Z,23.28
2018-07-26T02:04:59.185Z,23.17
2018-07-26T02:06:08.053Z,23.12
2018-07-26T02:07:16.915Z,23.2
2018-07-26T02:08:25.777Z,23.16
2018-07-26T02:09:34.642Z,23.07
2018-07-26T02:10:43.786Z,23.05
2018-07-26T02:11:52.932Z,23.04
2018-07-26T02:13:02.071Z,23.16
2018-07-26T02:14:10.938Z,23.12
2018-07-26T02:15:20.232Z,23.13
2018-07-26T02:16:29.096Z,22.98
2018-07-26T02:17:37.967Z,23.05
2018-07-26T02:18:46.828Z,23.07
2018-07-26T02:19:55.691Z,22.95
2018-07-26T02:21:04.554Z,22.98
2018-07-26T02:22:13.416Z,23.07
2018-07-26T02:23:22.559Z,22.98
2018-07-26T02:24:31.704Z,22.97
2018-07-26T02:25:40.568Z,23.04
2018-07-26T02:26:49.585Z,22.95
2018-07-26T02:27:58.455Z,22.97
2018-07-26T02:29:07.603Z,23
2018-07-26T02:30:16.743Z,22.95
2018-07-26T02:31:26.169Z,22.95
2018-07-26T02:32:35.033Z,22.91
2018-07-26T02:33:43.908Z,22.95
2018-07-26T02:34:52.769Z,22.8
2018-07-26T02:36:01.906Z,22.88
2018-07-26T02:37:11.076Z,22.9
2018-07-26T02:38:20.643Z,22.85
2018-07-26T02:39:30.060Z,22.77
2018-07-26T02:40:39.474Z,22.85
2018-07-26T02:41:48.347Z,22.9
2018-07-26T02:42:57.486Z,22.91
2018-07-26T02:44:06.354Z,22.75
2018-07-26T02:45:15.218Z,22.77
2018-07-26T02:46:24.647Z,22.68
2018-07-26T02:47:34.064Z,22.72
2018-07-26T02:48:43.493Z,22.72
2018-07-26T02:49:52.360Z,22.7
2018-07-26T02:51:01.229Z,22.65
2018-07-26T02:52:10.094Z,22.73
2018-07-26T02:53:18.961Z,22.7
2018-07-26T02:54:27.827Z,22.62
2018-07-26T02:55:36.692Z,22.64
2018-07-26T02:56:45.838Z,22.62
2018-07-26T02:57:54.704Z,22.64
2018-07-26T02:59:03.575Z,22.64
2018-07-26T03:00:12.438Z,22.64
2018-07-26T03:01:21.879Z,22.6
2018-07-26T03:02:31.020Z,22.55
2018-07-26T03:03:40.457Z,22.58
2018-07-26T03:04:49.328Z,22.58
2018-07-26T03:05:58.197Z,22.58
2018-07-26T03:07:07.483Z,22.51
2018-07-26T03:08:16.617Z,22.52
2018-07-26T03:09:25.768Z,22.52
2018-07-26T03:10:35.788Z,22.52
2018-07-26T03:11:44.650Z,22.46
2018-07-26T03:12:54.070Z,22.47
2018-07-26T03:14:03.492Z,22.47
2018-07-26T03:15:12.637Z,22.54
2018-07-26T03:16:22.338Z,22.51
2018-07-26T03:17:31.200Z,22.61
2018-07-26T03:18:40.227Z,22.54
2018-07-26T03:19:49.091Z,22.47
2018-07-26T03:20:57.999Z,22.55
2018-07-26T03:22:06.816Z,22.46
2018-07-26T03:23:15.687Z,22.43
2018-07-26T03:24:25.203Z,22.49
2018-07-26T03:25:34.069Z,22.49
2018-07-26T03:26:42.950Z,22.47
2018-07-26T03:27:51.816Z,22.43
2018-07-26T03:29:00.681Z,22.42
2018-07-26T03:30:09.847Z,22.49
2018-07-26T03:31:19.268Z,22.49
2018-07-26T03:32:28.136Z,22.54
2018-07-26T03:33:36.999Z,22.51
2018-07-26T03:34:45.860Z,22.45
2018-07-26T03:35:55.001Z,22.4
2018-07-26T03:37:04.140Z,22.3
2018-07-26T03:38:13.288Z,22.36
2018-07-26T03:39:22.151Z,22.31
2018-07-26T03:40:31.297Z,22.3
2018-07-26T03:41:40.162Z,22.3
2018-07-26T03:42:49.027Z,22.3
2018-07-26T03:43:57.889Z,22.35
2018-07-26T03:45:07.310Z,22.39
2018-07-26T03:46:16.172Z,22.33
2018-07-26T03:47:25.035Z,22.18
2018-07-26T03:48:33.896Z,22.18
2018-07-26T03:49:42.757Z,22.25
2018-07-26T03:50:51.621Z,22.18
2018-07-26T03:52:00.763Z,22.24
2018-07-26T03:53:09.627Z,22.21
2018-07-26T03:54:18.490Z,22.2
2018-07-26T03:55:27.353Z,22.2
2018-07-26T03:56:36.222Z,22.2
2018-07-26T03:57:45.409Z,22.2
2018-07-26T03:58:54.229Z,22.12
2018-07-26T04:00:03.100Z,22.09
2018-07-26T04:01:12.242Z,22.09
2018-07-26T04:02:21.383Z,22.02
2018-07-26T04:03:30.250Z,22.09
2018-07-26T04:04:39.495Z,22.07
2018-07-26T04:05:48.359Z,22.07
2018-07-26T04:06:57.220Z,22.1
2018-07-26T04:08:06.085Z,22.12
2018-07-26T04:09:14.947Z,22.15
2018-07-26T04:10:24.190Z,22.22
2018-07-26T04:11:33.050Z,22.18
2018-07-26T04:12:41.915Z,22.17
2018-07-26T04:13:51.053Z,22.17
2018-07-26T04:15:00.247Z,22.2
2018-07-26T04:16:09.259Z,22.2
2018-07-26T04:17:18.126Z,22.12
2018-07-26T04:18:26.992Z,22.07
2018-07-26T04:19:35.857Z,22.18
2018-07-26T04:20:44.722Z,22.21
2018-07-26T04:21:54.494Z,22.22
2018-07-26T04:23:03.629Z,22.14
2018-07-26T04:24:12.766Z,22.21
2018-07-26T04:25:21.631Z,22.22
2018-07-26T04:26:30.490Z,22.14
2018-07-26T04:27:39.504Z,22.2
2018-07-26T04:28:48.371Z,22.14
2018-07-26T04:29:57.231Z,22.12
2018-07-26T04:31:06.097Z,22.18
2018-07-26T04:32:15.015Z,22.22
2018-07-26T04:33:24.302Z,22.17
2018-07-26T04:34:33.441Z,22.12
2018-07-26T04:35:42.304Z,22.2
2018-07-26T04:36:51.170Z,22.2
2018-07-26T04:38:00.028Z,22.18
2018-07-26T04:39:09.041Z,22.2
2018-07-26T04:40:17.907Z,22.2
2018-07-26T04:41:26.769Z,22.21
2018-07-26T04:42:35.632Z,22.18
2018-07-26T04:43:44.499Z,22.25
2018-07-26T04:44:54.070Z,22.35
2018-07-26T04:46:03.208Z,22.28
2018-07-26T04:47:12.584Z,22.25
2018-07-26T04:48:21.445Z,22.27
2018-07-26T04:49:30.309Z,22.37
2018-07-26T04:50:39.171Z,22.3
2018-07-26T04:51:48.036Z,22.4
2018-07-26T04:52:57.172Z,22.4
2018-07-26T04:54:06.037Z,22.4
2018-07-26T04:55:14.900Z,22.45
2018-07-26T04:56:24.115Z,22.43
2018-07-26T04:57:32.979Z,22.49
2018-07-26T04:58:42.120Z,22.45
2018-07-26T04:59:50.987Z,22.46
2018-07-26T05:00:59.849Z,22.51
2018-07-26T05:02:08.715Z,22.49
2018-07-26T05:03:17.860Z,22.54
2018-07-26T05:04:27.003Z,22.6
2018-07-26T05:05:35.866Z,22.55
2018-07-26T05:06:45.010Z,22.61
2018-07-26T05:07:54.256Z,22.64
2018-07-26T05:09:03.398Z,22.54
2018-07-26T05:10:12.261Z,22.61
2018-07-26T05:11:21.401Z,22.64
2018-07-26T05:12:30.545Z,22.65
2018-07-26T05:13:39.559Z,22.65
2018-07-26T05:14:48.423Z,22.75
2018-07-26T05:15:57.290Z,22.75
2018-07-26T05:17:06.163Z,22.73
2018-07-26T05:18:15.293Z,22.77
2018-07-26T05:19:24.210Z,22.8
2018-07-26T05:20:33.353Z,22.73
2018-07-26T05:21:42.215Z,22.73
2018-07-26T05:22:51.364Z,22.76
2018-07-26T05:24:00.229Z,22.86
2018-07-26T05:25:09.445Z,22.88
2018-07-26T05:26:18.308Z,22.85
2018-07-26T05:27:27.449Z,22.83
2018-07-26T05:28:36.594Z,22.83
2018-07-26T05:29:45.464Z,22.94
2018-07-26T05:30:54.610Z,22.91
2018-07-26T05:32:03.471Z,22.91
2018-07-26T05:33:12.339Z,23.04
2018-07-26T05:34:21.496Z,23.01
2018-07-26T05:35:30.356Z,23.1
2018-07-26T05:36:39.501Z,23.1
2018-07-26T05:37:48.691Z,23.1
2018-07-26T05:38:57.863Z,23.05
2018-07-26T05:40:06.731Z,23.15
2018-07-26T05:41:15.590Z,23.27
2018-07-26T05:42:24.737Z,23.23
2018-07-26T05:43:33.599Z,23.23
2018-07-26T05:44:42.462Z,23.22
2018-07-26T05:45:51.329Z,23.27
2018-07-26T05:47:00.193Z,23.32
2018-07-26T05:48:09.214Z,23.33
2018-07-26T05:49:18.082Z,23.4
2018-07-26T05:50:27.232Z,23.39
2018-07-26T05:51:36.093Z,23.39
2018-07-26T05:52:44.962Z,23.51
2018-07-26T05:53:53.828Z,23.47
2018-07-26T05:55:02.692Z,23.55
2018-07-26T05:56:11.558Z,23.61
2018-07-26T05:57:20.422Z,23.58
2018-07-26T05:58:29.564Z,23.65
2018-07-26T05:59:38.710Z,23.58
2018-07-26T06:00:47.856Z,23.63
2018-07-26T06:01:56.729Z,23.61
2018-07-26T06:03:05.601Z,23.7
2018-07-26T06:04:14.468Z,23.72
2018-07-26T06:05:23.333Z,23.75
2018-07-26T06:06:32.198Z,23.75
2018-07-26T06:07:41.066Z,23.9
2018-07-26T06:08:49.932Z,23.9
2018-07-26T06:09:58.797Z,23.85
2018-07-26T06:11:07.662Z,23.9
2018-07-26T06:12:16.529Z,23.94
2018-07-26T06:13:25.394Z,23.98
2018-07-26T06:14:34.535Z,24.02
2018-07-26T06:15:43.398Z,24.03
2018-07-26T06:16:52.263Z,24.09
2018-07-26T06:18:01.409Z,24.16
2018-07-26T06:19:10.274Z,24.2
2018-07-26T06:20:19.145Z,24.25
2018-07-26T06:21:28.284Z,24.22
2018-07-26T06:22:37.435Z,24.18
2018-07-26T06:23:46.300Z,24.21
2018-07-26T06:24:55.168Z,24.35
2018-07-26T06:26:04.314Z,24.42
2018-07-26T06:27:13.223Z,24.5
2018-07-26T06:28:22.468Z,24.55
2018-07-26T06:29:31.243Z,24.58
2018-07-26T06:30:40.106Z,24.57
2018-07-26T06:31:49.245Z,24.52
2018-07-26T06:32:58.671Z,24.65
2018-07-26T06:34:07.811Z,24.61
2018-07-26T06:35:16.953Z,24.65
2018-07-26T06:36:25.819Z,24.69
2018-07-26T06:37:34.853Z,24.84
2018-07-26T06:38:44.553Z,24.81
2018-07-26T06:39:53.420Z,24.84
2018-07-26T06:41:02.314Z,24.95
2018-07-26T06:42:11.473Z,24.91
2018-07-26T06:43:20.615Z,25.03
2018-07-26T06:44:29.482Z,25.08
2018-07-26T06:45:38.350Z,25.03
2018-07-26T06:46:47.217Z,25.13
2018-07-26T06:47:56.435Z,25.15
2018-07-26T06:49:05.302Z,25.2
2018-07-26T06:50:14.167Z,25.21
2018-07-26T06:51:23.040Z,25.28
2018-07-26T06:52:32.184Z,25.28
2018-07-26T06:53:41.333Z,25.3
2018-07-26T06:54:50.199Z,25.23
2018-07-26T06:55:59.062Z,25.33
2018-07-26T06:57:07.935Z,25.38
2018-07-26T06:58:16.804Z,25.3
2018-07-26T06:59:25.673Z,25.38
2018-07-26T07:00:34.534Z,25.38
2018-07-26T07:01:43.403Z,25.36
2018-07-26T07:02:52.821Z,25.4
2018-07-26T07:04:01.689Z,25.45
2018-07-26T07:05:10.720Z,25.45
2018-07-26T07:06:19.573Z,25.43
2018-07-26T07:07:28.446Z,25.38
2018-07-26T07:08:37.312Z,25.52
2018-07-26T07:09:46.180Z,25.62
2018-07-26T07:10:55.203Z,25.62
2018-07-26T07:12:04.104Z,25.67
2018-07-26T07:13:12.991Z,25.65
2018-07-26T07:14:21.857Z,25.7
2018-07-26T07:15:31.002Z,25.75
2018-07-26T07:16:39.867Z,25.76
2018-07-26T07:17:49.010Z,25.77
2018-07-26T07:18:57.876Z,25.77
2018-07-26T07:20:06.760Z,25.83
2018-07-26T07:21:15.642Z,25.92
2018-07-26T07:22:24.610Z,25.9
2018-07-26T07:23:33.476Z,25.99
2018-07-26T07:24:42.342Z,26.09
2018-07-26T07:25:51.484Z,26.1
2018-07-26T07:27:00.676Z,26.17
2018-07-26T07:28:09.543Z,26.18
2018-07-26T07:29:18.976Z,26.26
2018-07-26T07:30:28.170Z,26.25
2018-07-26T07:31:36.997Z,26.2
2018-07-26T07:32:45.866Z,26.23
2018-07-26T07:33:54.731Z,26.28
2018-07-26T07:35:03.600Z,26.28
2018-07-26T07:36:12.758Z,26.26
2018-07-26T07:37:21.620Z,26.2
2018-07-26T07:38:30.486Z,26.32
2018-07-26T07:39:39.630Z,26.28
2018-07-26T07:40:48.496Z,26.25
2018-07-26T07:41:57.365Z,26.5
2018-07-26T07:43:06.233Z,26.65
2018-07-26T07:44:15.102Z,26.67
2018-07-26T07:45:23.967Z,26.77
2018-07-26T07:46:32.844Z,26.75
2018-07-26T07:47:42.187Z,26.99
2018-07-26T07:48:51.421Z,26.97
2018-07-26T07:50:00.296Z,26.99
2018-07-26T07:51:09.163Z,27.09
2018-07-26T07:52:18.317Z,27.1
2018-07-26T07:53:27.338Z,27.18
2018-07-26T07:54:36.482Z,27.18
2018-07-26T07:55:45.352Z,27.28
2018-07-26T07:56:54.231Z,27.27
2018-07-26T07:58:03.088Z,27.34
2018-07-26T07:59:11.954Z,27.46
2018-07-26T08:00:20.833Z,27.47
2018-07-26T08:01:29.930Z,27.6
2018-07-26T08:02:38.797Z,27.54
2018-07-26T08:03:47.664Z,27.69
2018-07-26T08:04:56.545Z,27.7
2018-07-26T08:06:05.415Z,27.72
2018-07-26T08:07:14.283Z,27.82
2018-07-26T08:08:23.150Z,27.87
2018-07-26T08:09:32.023Z,27.97
2018-07-26T08:10:40.935Z,28.04
2018-07-26T08:11:49.814Z,28
2018-07-26T08:12:58.683Z,28.06
2018-07-26T08:14:07.833Z,28.03
2018-07-26T08:15:17.121Z,28.06
2018-07-26T08:16:26.053Z,28.03
2018-07-26T08:17:34.923Z,28.02
2018-07-26T08:18:43.791Z,28.17
2018-07-26T08:19:52.660Z,28.09
2018-07-26T08:21:01.528Z,28.24
2018-07-26T08:22:10.413Z,28.25
2018-07-26T08:23:19.280Z,28.31
2018-07-26T08:24:28.241Z,28.34
2018-07-26T08:25:37.109Z,28.37
2018-07-26T08:26:45.981Z,28.3
2018-07-26T08:27:54.847Z,28.44
2018-07-26T08:29:03.714Z,28.44
2018-07-26T08:30:12.584Z,28.46
2018-07-26T08:31:21.454Z,28.48
2018-07-26T08:32:30.322Z,28.49
2018-07-26T08:33:39.488Z,28.52
2018-07-26T08:34:48.357Z,28.37
2018-07-26T08:35:57.752Z,28.55
2018-07-26T08:37:06.635Z,28.54
2018-07-26T08:38:15.499Z,28.52
2018-07-26T08:39:24.373Z,28.55
2018-07-26T08:40:33.239Z,28.64
2018-07-26T08:41:42.108Z,28.64
2018-07-26T08:42:50.976Z,28.7
2018-07-26T08:43:59.845Z,28.8
2018-07-26T08:45:08.722Z,28.77
2018-07-26T08:46:17.611Z,28.73
2018-07-26T08:47:26.911Z,28.74
2018-07-26T08:48:35.780Z,28.8
2018-07-26T08:49:44.648Z,28.76
2018-07-26T08:50:53.514Z,28.68
2018-07-26T08:52:02.387Z,28.76
2018-07-26T08:53:11.600Z,28.76
2018-07-26T08:54:20.538Z,28.73
2018-07-26T08:55:29.338Z,28.68
2018-07-26T08:56:38.201Z,28.76
2018-07-26T08:57:47.075Z,28.81
2018-07-26T08:58:55.942Z,28.89
2018-07-26T09:00:04.809Z,28.86
2018-07-26T09:01:13.769Z,28.9
2018-07-26T09:02:22.926Z,28.76
2018-07-26T09:03:31.806Z,28.89
2018-07-26T09:04:40.692Z,28.93
2018-07-26T09:05:49.568Z,29.11
2018-07-26T09:06:58.714Z,29.16
2018-07-26T09:08:07.861Z,29.23
2018-07-26T09:09:16.741Z,29.21
2018-07-26T09:10:25.947Z,29.33
2018-07-26T09:11:34.871Z,29.45
2018-07-26T09:12:43.685Z,29.33
2018-07-26T09:13:52.602Z,29.34
2018-07-26T09:15:01.819Z,29.46
2018-07-26T09:16:10.970Z,29.37
2018-07-26T09:17:19.905Z,29.31
2018-07-26T09:18:28.708Z,29.33
2018-07-26T09:19:37.988Z,29.37
2018-07-26T09:20:47.075Z,29.39
2018-07-26T09:21:56.044Z,29.39
2018-07-26T09:23:04.911Z,29.49
2018-07-26T09:24:14.058Z,29.61
2018-07-26T09:25:22.926Z,29.68
2018-07-26T09:26:31.796Z,29.79
2018-07-26T09:27:40.665Z,29.85
2018-07-26T09:28:49.601Z,29.87
2018-07-26T09:29:58.751Z,29.97
2018-07-26T09:31:07.623Z,30.05
2018-07-26T09:32:16.491Z,30.15
2018-07-26T09:33:25.425Z,30.22
2018-07-26T09:34:34.518Z,30.22
2018-07-26T09:35:43.388Z,30.26
2018-07-26T09:36:52.254Z,30.32
2018-07-26T09:38:01.119Z,30.31
2018-07-26T09:39:10.341Z,30.53
2018-07-26T09:40:19.209Z,30.55
2018-07-26T09:41:28.079Z,30.76
2018-07-26T09:42:36.956Z,30.73
2018-07-26T09:43:46.109Z,30.82
2018-07-26T09:44:55.256Z,30.82
2018-07-26T09:46:04.127Z,30.92
2018-07-26T09:47:12.996Z,30.89
2018-07-26T09:48:21.866Z,30.98
2018-07-26T09:49:31.012Z,31.01
2018-07-26T09:50:40.532Z,31.02
2018-07-26T09:51:49.401Z,30.99
2018-07-26T09:52:58.550Z,31.01
2018-07-26T09:54:07.705Z,30.99
2018-07-26T09:55:16.849Z,31.13
2018-07-26T09:56:25.722Z,31.26
2018-07-26T09:57:34.598Z,31.29
2018-07-26T09:58:43.466Z,31.28
2018-07-26T09:59:52.337Z,31.13
2018-07-26T10:01:01.309Z,31.26
2018-07-26T10:02:10.614Z,31.46
2018-07-26T10:03:19.758Z,31.57
2018-07-26T10:04:28.627Z,31.44
2018-07-26T10:05:37.497Z,31.57
2018-07-26T10:06:46.423Z,31.57
2018-07-26T10:07:55.592Z,31.51
2018-07-26T10:09:04.465Z,31.7
2018-07-26T10:10:13.336Z,31.61
2018-07-26T10:11:22.204Z,31.66
2018-07-26T10:12:31.073Z,31.69
2018-07-26T10:13:40.291Z,31.7
2018-07-26T10:14:49.715Z,31.8
2018-07-26T10:15:58.705Z,31.7
2018-07-26T10:17:07.558Z,31.72
2018-07-26T10:18:16.432Z,31.75
2018-07-26T10:19:25.298Z,31.85
2018-07-26T10:20:34.168Z,31.88
2018-07-26T10:21:43.040Z,31.72
2018-07-26T10:22:52.186Z,31.86
2018-07-26T10:24:01.056Z,31.88
2018-07-26T10:25:09.928Z,31.85
2018-07-26T10:26:18.797Z,31.95
2018-07-26T10:27:27.666Z,32.01
2018-07-26T10:28:36.536Z,32.08
2018-07-26T10:29:45.405Z,32.03
2018-07-26T10:30:54.553Z,32.15
2018-07-26T10:32:03.425Z,32.23
2018-07-26T10:33:12.571Z,32.13
2018-07-26T10:34:21.440Z,32.13
2018-07-26T10:35:30.309Z,32.21
2018-07-26T10:36:39.183Z,32.13
2018-07-26T10:37:48.052Z,32.11
2018-07-26T10:38:56.931Z,32.22
2018-07-26T10:40:05.806Z,32.38
2018-07-26T10:41:14.686Z,32.47
2018-07-26T10:42:23.695Z,32.38
2018-07-26T10:43:32.570Z,32.43
2018-07-26T10:44:41.711Z,32.5
2018-07-26T10:45:50.579Z,32.63
2018-07-26T10:46:59.451Z,32.65
2018-07-26T10:48:08.752Z,32.74
2018-07-26T10:49:17.620Z,32.72
2018-07-26T10:50:26.490Z,32.7
2018-07-26T10:51:35.384Z,32.81
2018-07-26T10:52:44.535Z,32.85
2018-07-26T10:53:53.782Z,32.79
2018-07-26T10:55:02.652Z,32.82
2018-07-26T10:56:11.814Z,32.79
2018-07-26T10:57:20.971Z,32.81
2018-07-26T10:58:29.842Z,32.96
2018-07-26T10:59:38.862Z,32.96
2018-07-26T11:00:47.734Z,32.96
2018-07-26T11:01:56.604Z,32.99
2018-07-26T11:03:05.472Z,32.93
2018-07-26T11:04:14.344Z,33
2018-07-26T11:05:23.567Z,32.99
2018-07-26T11:06:32.442Z,33.09
2018-07-26T11:07:41.307Z,33.07
2018-07-26T11:08:50.178Z,33.15
2018-07-26T11:09:59.045Z,33.18
2018-07-26T11:11:08.067Z,33.16
2018-07-26T11:12:16.937Z,33.18
2018-07-26T11:13:26.084Z,33.23
2018-07-26T11:14:34.955Z,33.21
2018-07-26T11:15:44.129Z,33.31
2018-07-26T11:16:52.975Z,33.23
2018-07-26T11:18:02.122Z,33.28
2018-07-26T11:19:11.270Z,33.32
2018-07-26T11:20:20.423Z,33.22
2018-07-26T11:21:29.292Z,33.22
2018-07-26T11:22:38.316Z,33.32
2018-07-26T11:23:47.185Z,33.38
2018-07-26T11:24:56.057Z,33.41
2018-07-26T11:26:04.928Z,33.56
2018-07-26T11:27:13.798Z,33.57
2018-07-26T11:28:23.375Z,33.59
2018-07-26T11:29:32.535Z,33.63
2018-07-26T11:30:41.690Z,33.71
2018-07-26T11:31:50.560Z,33.81
2018-07-26T11:32:59.432Z,33.76
2018-07-26T11:34:08.579Z,33.79
2018-07-26T11:35:17.730Z,33.84
2018-07-26T11:36:26.601Z,33.81
2018-07-26T11:37:35.474Z,33.93
2018-07-26T11:38:44.676Z,33.97
2018-07-26T11:39:53.546Z,34.05
2018-07-26T11:41:02.415Z,34.13
2018-07-26T11:42:11.282Z,34.03
2018-07-26T11:43:20.431Z,34.1
2018-07-26T11:44:29.303Z,34.15
2018-07-26T11:45:38.276Z,34.25
2018-07-26T11:46:47.147Z,34.35
2018-07-26T11:47:56.019Z,34.28
2018-07-26T11:49:04.895Z,34.44
2018-07-26T11:50:13.842Z,34.44
2018-07-26T11:51:23.033Z,34.46
2018-07-26T11:52:32.184Z,34.53
2018-07-26T11:53:41.341Z,34.47
2018-07-26T11:54:51.039Z,34.65
2018-07-26T11:56:00.186Z,34.77
2018-07-26T11:57:09.059Z,34.72
2018-07-26T11:58:17.934Z,34.7
2018-07-26T11:59:26.808Z,34.72
2018-07-26T12:00:35.679Z,34.56
2018-07-26T12:01:44.956Z,34.46
2018-07-26T12:02:53.789Z,34.66
2018-07-26T12:04:02.665Z,34.81
2018-07-26T12:05:11.816Z,34.99
2018-07-26T12:06:20.690Z,34.97
2018-07-26T12:07:29.565Z,35.02
2018-07-26T12:08:38.441Z,35.07
2018-07-26T12:09:47.313Z,35.07
2018-07-26T12:10:56.184Z,35.18
2018-07-26T12:12:05.337Z,35.07
2018-07-26T12:13:14.211Z,35.25
2018-07-26T12:14:23.317Z,35.48
2018-07-26T12:15:32.121Z,35.41
2018-07-26T12:16:40.995Z,35.48
2018-07-26T12:17:50.379Z,35.45
2018-07-26T12:18:59.142Z,35.6
2018-07-26T12:20:08.043Z,35.56
2018-07-26T12:21:16.897Z,35.58
2018-07-26T12:22:25.774Z,35.6
2018-07-26T12:23:34.648Z,35.74
2018-07-26T12:24:43.532Z,35.81
2018-07-26T12:25:52.687Z,35.89
2018-07-26T12:27:01.858Z,35.87
2018-07-26T12:28:11.028Z,35.92
2018-07-26T12:29:20.184Z,35.84
2018-07-26T12:30:29.062Z,35.93
2018-07-26T12:31:38.040Z,36.01
2018-07-26T12:32:47.199Z,35.94
2018-07-26T12:33:56.082Z,35.94
2018-07-26T12:35:05.238Z,35.99
2018-07-26T12:36:14.120Z,36.01
2018-07-26T12:37:23.121Z,35.99
2018-07-26T12:38:31.999Z,36.12
2018-07-26T12:39:40.899Z,36.2
2018-07-26T12:40:49.857Z,36.37
2018-07-26T12:41:59.081Z,36.41
2018-07-26T12:43:08.018Z,36.53
2018-07-26T12:44:17.208Z,36.56
2018-07-26T12:45:26.434Z,36.59
2018-07-26T12:46:36.651Z,36.57
2018-07-26T12:47:46.093Z,36.57
2018-07-26T12:48:55.144Z,36.56
2018-07-26T12:50:04.063Z,36.53
2018-07-26T12:51:13.580Z,36.54
2018-07-26T12:52:22.803Z,36.65
2018-07-26T12:53:32.005Z,36.62
2018-07-26T12:54:41.614Z,36.76
2018-07-26T12:55:50.527Z,36.9
2018-07-26T12:56:59.744Z,36.95
2018-07-26T12:58:09.042Z,36.94
2018-07-26T12:59:17.938Z,36.93
2018-07-26T13:00:26.894Z,37
2018-07-26T13:01:36.688Z,37.05
2018-07-26T13:02:45.523Z,37.09
2018-07-26T13:03:54.451Z,37.12
2018-07-26T13:05:03.357Z,37.21
2018-07-26T13:06:12.279Z,37.21
2018-07-26T13:07:21.273Z,37.32
2018-07-26T13:08:30.188Z,37.32
2018-07-26T13:09:39.172Z,37.39
2018-07-26T13:10:48.060Z,37.37
2018-07-26T13:11:57.587Z,37.49
2018-07-26T13:13:06.616Z,37.47
2018-07-26T13:14:15.775Z,37.62
2018-07-26T13:15:24.805Z,37.46
2018-07-26T13:16:33.839Z,37.63
2018-07-26T13:17:42.943Z,37.5
2018-07-26T13:18:51.983Z,37.44
2018-07-26T13:20:01.178Z,37.46
2018-07-26T13:21:10.143Z,37.41
2018-07-26T13:22:19.363Z,37.43
2018-07-26T13:23:28.301Z,37.46
2018-07-26T13:24:37.480Z,37.57
2018-07-26T13:25:46.935Z,37.7
2018-07-26T13:26:56.250Z,37.69
2018-07-26T13:28:05.643Z,37.75
2018-07-26T13:29:14.608Z,37.94
2018-07-26T13:30:23.997Z,38.22
2018-07-26T13:31:33.024Z,38.35
2018-07-26T13:32:42.065Z,38.44
2018-07-26T13:33:51.185Z,38.41
2018-07-26T13:35:00.412Z,38.11
2018-07-26T13:36:09.596Z,38.18
2018-07-26T13:37:18.843Z,38.34
2018-07-26T13:38:27.951Z,38.59
2018-07-26T13:39:37.293Z,38.66
2018-07-26T13:40:46.451Z,38.66
2018-07-26T13:41:55.993Z,38.59
2018-07-26T13:43:05.015Z,38.66
2018-07-26T13:44:14.060Z,38.61
2018-07-26T13:45:23.165Z,38.68
2018-07-26T13:46:32.218Z,38.71
2018-07-26T13:47:41.248Z,38.68
2018-07-26T13:48:50.443Z,38.86
2018-07-26T13:49:59.663Z,39.03
2018-07-26T13:51:08.612Z,39.17
2018-07-26T13:52:17.850Z,39.32
2018-07-26T13:53:26.757Z,39.36
2018-07-26T13:54:36.021Z,39.41
2018-07-26T13:55:45.051Z,39.29
2018-07-26T13:56:54.092Z,39.32
2018-07-26T13:58:03.098Z,39.38
2018-07-26T13:59:12.217Z,39.54
2018-07-26T14:00:21.394Z,39.6
2018-07-26T14:01:30.392Z,39.41
2018-07-26T14:02:39.627Z,39.63
2018-07-26T14:03:48.900Z,39.77
2018-07-26T14:04:57.969Z,39.75
2018-07-26T14:06:07.412Z,39.73
2018-07-26T14:07:16.399Z,39.82
2018-07-26T14:08:25.351Z,39.7
2018-07-26T14:09:34.307Z,39.62
2018-07-26T14:10:43.281Z,39.66
2018-07-26T14:11:52.409Z,39.69
2018-07-26T14:13:01.641Z,39.72
2018-07-26T14:14:11.145Z,39.79
2018-07-26T14:15:20.211Z,40
2018-07-26T14:16:29.463Z,39.77
2018-07-26T14:17:38.517Z,39.94
2018-07-26T14:18:47.461Z,40
2018-07-26T14:19:56.629Z,40.1
2018-07-26T14:21:05.523Z,39.92
2018-07-26T14:22:14.966Z,39.88
2018-07-26T14:23:24.838Z,40.1
2018-07-26T14:24:34.149Z,39.82
2018-07-26T14:25:43.209Z,39.63
2018-07-26T14:26:52.206Z,39.47
2018-07-26T14:28:01.346Z,39.41
2018-07-26T14:29:10.825Z,39.48
2018-07-26T14:30:19.705Z,39.62
2018-07-26T14:31:28.882Z,39.78
2018-07-26T14:32:37.786Z,39.86
2018-07-26T14:33:47.020Z,39.84
2018-07-26T14:34:55.954Z,39.85
2018-07-26T14:36:05.458Z,39.81
2018-07-26T14:37:14.524Z,39.6
2018-07-26T14:38:24.467Z,39.35
2018-07-26T14:39:33.534Z,39.47
2018-07-26T14:40:42.582Z,39.55
2018-07-26T14:41:51.640Z,39.57
2018-07-26T14:43:00.928Z,39.66
2018-07-26T14:44:10.165Z,39.72
2018-07-26T14:45:19.220Z,39.82
2018-07-26T14:46:28.295Z,40.06
2018-07-26T14:47:37.434Z,40.13
2018-07-26T14:48:46.482Z,40.34
2018-07-26T14:49:55.531Z,40.26
2018-07-26T14:51:04.460Z,40.23
2018-07-26T14:52:13.810Z,40.39
2018-07-26T14:53:22.799Z,40.48